createdAt,value
2022-08-08T00:01:12.859Z,15.08
2022-08-08T00:04:05.557Z,15.09
2022-08-08T00:06:47.526Z,15.04
2022-08-08T00:09:33.107Z,15.19
2022-08-08T00:12:09.735Z,15.26
2022-08-08T00:15:00.114Z,15.18
2022-08-08T00:18:01.687Z,14.92
2022-08-08T00:20:44.631Z,14.76
2022-08-08T00:23:25.303Z,14.58
2022-08-08T00:25:58.139Z,14.49
2022-08-08T00:28:35.515Z,14.65
2022-08-08T00:32:14.863Z,14.66
2022-08-08T00:34:46.368Z,14.61
2022-08-08T00:37:46.926Z,14.44
2022-08-08T00:41:12.382Z,14.34
2022-08-08T00:43:56.308Z,14.36
2022-08-08T00:46:57.389Z,14.44
2022-08-08T00:49:27.337Z,14.75
2022-08-08T00:52:19.996Z,14.70
2022-08-08T00:55:09.226Z,14.73
2022-08-08T00:57:58.827Z,14.68
2022-08-08T01:00:35.866Z,14.58
2022-08-08T01:04:01.012Z,14.55
2022-08-08T01:06:37.516Z,14.45
2022-08-08T01:09:35.873Z,14.39
2022-08-08T01:12:54.590Z,14.35
2022-08-08T01:15:54.281Z,14.37
2022-08-08T01:19:02.716Z,14.49
2022-08-08T01:22:12.578Z,14.56
2022-08-08T01:24:57.243Z,14.59
2022-08-08T01:27:44.062Z,14.59
2022-08-08T01:30:37.092Z,14.42
2022-08-08T01:33:53.813Z,14.30
2022-08-08T01:36:36.539Z,14.17
2022-08-08T01:39:24.182Z,14.14
2022-08-08T01:42:20.023Z,14.16
2022-08-08T01:45:03.052Z,14.11
2022-08-08T01:48:14.620Z,13.95
2022-08-08T01:51:48.636Z,13.94
2022-08-08T01:55:26.040Z,13.92
2022-08-08T01:57:19.568Z,13.94
2022-08-08T02:00:03.568Z,13.90
2022-08-08T02:03:50.495Z,13.87
2022-08-08T02:06:31.578Z,13.82
2022-08-08T02:09:18.262Z,13.67
2022-08-08T02:11:59.523Z,13.67
2022-08-08T02:14:49.823Z,13.58
2022-08-08T02:17:36.633Z,13.55
2022-08-08T02:21:01.104Z,13.59
2022-08-08T02:23:35.131Z,13.97
2022-08-08T02:26:03.409Z,13.72
2022-08-08T02:29:21.088Z,13.45
2022-08-08T02:31:58.575Z,13.35
2022-08-08T02:34:36.841Z,13.39
2022-08-08T02:37:52.875Z,13.29
2022-08-08T02:40:12.293Z,13.25
2022-08-08T02:44:37.277Z,13.23
2022-08-08T02:46:08.121Z,13.26
2022-08-08T02:49:06.010Z,13.15
2022-08-08T02:52:50.173Z,13.18
2022-08-08T02:55:19.744Z,13.30
2022-08-08T02:58:15.102Z,13.21
2022-08-08T03:00:58.290Z,13.16
2022-08-08T03:05:03.898Z,13.20
2022-08-08T03:06:40.697Z,13.13
2022-08-08T03:09:42.658Z,13.13
2022-08-08T03:12:36.488Z,13.14
2022-08-08T03:16:00.906Z,13.12
2022-08-08T03:18:08.334Z,13.07
2022-08-08T03:20:52.468Z,13.03
2022-08-08T03:23:23.839Z,13.05
2022-08-08T03:25:58.005Z,13.07
2022-08-08T03:28:44.554Z,13.07
2022-08-08T03:32:05.348Z,13.07
2022-08-08T03:34:18.639Z,12.99
2022-08-08T03:36:46.514Z,12.92
2022-08-08T03:39:15.996Z,12.90
2022-08-08T03:42:27.794Z,12.85
2022-08-08T03:44:38.603Z,12.92
2022-08-08T03:47:19.537Z,12.95
2022-08-08T03:50:00.947Z,12.95
2022-08-08T03:52:35.351Z,12.92
2022-08-08T03:55:56.288Z,12.91
2022-08-08T03:58:31.567Z,12.84
2022-08-08T04:01:20.785Z,12.87
2022-08-08T04:03:58.897Z,12.77
2022-08-08T04:06:29.866Z,12.76
2022-08-08T04:09:10.214Z,12.72
2022-08-08T04:11:48.652Z,12.70
2022-08-08T04:14:34.945Z,12.67
2022-08-08T04:17:04.400Z,12.66
2022-08-08T04:19:36.687Z,12.67
2022-08-08T04:22:04.494Z,12.77
2022-08-08T04:24:36.235Z,12.82
2022-08-08T04:27:07.391Z,12.86
2022-08-08T04:29:37.693Z,12.87
2022-08-08T04:32:10.676Z,12.83
2022-08-08T04:34:55.269Z,12.79
2022-08-08T04:37:31.659Z,12.80
2022-08-08T04:40:05.712Z,12.86
2022-08-08T04:42:55.923Z,12.94
2022-08-08T04:45:25.843Z,13.00
2022-08-08T04:47:58.615Z,13.03
2022-08-08T04:50:34.280Z,13.12
2022-08-08T04:53:52.173Z,13.24
2022-08-08T04:55:56.035Z,13.49
2022-08-08T04:58:26.333Z,13.69
2022-08-08T05:00:53.349Z,13.68
2022-08-08T05:04:11.316Z,13.58
2022-08-08T05:06:12.714Z,13.59
2022-08-08T05:08:42.719Z,13.60
2022-08-08T05:11:18.781Z,13.65
2022-08-08T05:13:58.109Z,13.69
2022-08-08T05:16:51.870Z,13.77
2022-08-08T05:20:11.635Z,13.69
2022-08-08T05:22:10.386Z,13.76
2022-08-08T05:24:41.204Z,13.80
2022-08-08T05:27:08.300Z,13.75
2022-08-08T05:29:37.699Z,13.79
2022-08-08T05:32:09.546Z,13.80
2022-08-08T05:34:50.282Z,13.87
2022-08-08T05:37:39.117Z,13.97
2022-08-08T05:40:14.677Z,14.20
2022-08-08T05:42:51.740Z,14.34
2022-08-08T05:45:25.149Z,14.49
2022-08-08T05:48:08.885Z,14.61
2022-08-08T05:50:36.783Z,14.75
2022-08-08T05:53:53.794Z,14.80
2022-08-08T05:56:09.545Z,14.96
2022-08-08T05:58:56.727Z,15.22
2022-08-08T06:01:55.424Z,15.26
2022-08-08T06:04:23.774Z,15.39
2022-08-08T06:06:56.643Z,15.51
2022-08-08T06:09:59.012Z,15.79
2022-08-08T06:12:30.052Z,15.93
2022-08-08T06:14:59.923Z,16.07
2022-08-08T06:17:32.168Z,16.14
2022-08-08T06:20:16.336Z,16.29
2022-08-08T06:22:46.298Z,16.47
2022-08-08T06:25:18.438Z,16.63
2022-08-08T06:28:13.121Z,16.86
2022-08-08T06:30:44.564Z,17.04
2022-08-08T06:33:13.326Z,17.37
2022-08-08T06:36:06.335Z,17.51
2022-08-08T06:38:40.993Z,17.55
2022-08-08T06:41:13.146Z,17.62
2022-08-08T06:43:41.552Z,17.84
2022-08-08T06:46:29.972Z,18.04
2022-08-08T06:48:57.597Z,18.14
2022-08-08T06:51:31.210Z,18.25
2022-08-08T06:54:22.749Z,18.25
2022-08-08T06:56:51.597Z,18.23
2022-08-08T06:59:20.099Z,18.19
2022-08-08T07:02:26.422Z,18.31
2022-08-08T07:04:58.607Z,18.74
2022-08-08T07:07:44.001Z,18.97
2022-08-08T07:10:13.020Z,18.91
2022-08-08T07:12:48.342Z,18.72
2022-08-08T07:16:06.128Z,18.65
2022-08-08T07:18:57.759Z,18.97
2022-08-08T07:21:31.022Z,18.94
2022-08-08T07:24:03.842Z,19.14
2022-08-08T07:26:54.300Z,19.29
2022-08-08T07:30:01.642Z,19.45
2022-08-08T07:32:15.714Z,19.38
2022-08-08T07:34:59.444Z,19.58
2022-08-08T07:37:49.588Z,19.49
2022-08-08T07:40:30.138Z,19.59
2022-08-08T07:43:04.224Z,19.62
2022-08-08T07:46:05.291Z,19.90
2022-08-08T07:48:29.701Z,20.20
2022-08-08T07:51:00.750Z,20.68
2022-08-08T07:54:01.487Z,21.02
2022-08-08T07:56:37.378Z,20.98
2022-08-08T07:59:14.222Z,20.72
2022-08-08T08:02:34.910Z,20.78
2022-08-08T08:04:49.370Z,21.07
2022-08-08T08:07:31.706Z,21.50
2022-08-08T08:10:03.021Z,21.91
2022-08-08T08:12:41.324Z,21.43
2022-08-08T08:15:15.142Z,21.52
2022-08-08T08:17:48.195Z,21.67
2022-08-08T08:20:18.439Z,22.13
2022-08-08T08:22:47.293Z,22.50
2022-08-08T08:25:16.882Z,22.24
2022-08-08T08:28:00.400Z,22.72
2022-08-08T08:30:29.981Z,23.12
2022-08-08T08:32:56.815Z,23.08
2022-08-08T08:38:18.191Z,22.83
2022-08-08T08:40:51.658Z,22.55
2022-08-08T08:43:26.899Z,22.83
2022-08-08T08:46:01.166Z,23.56
2022-08-08T08:48:35.097Z,23.61
2022-08-08T08:51:06.350Z,23.96
2022-08-08T08:53:56.649Z,23.65
2022-08-08T08:56:29.417Z,23.82
2022-08-08T08:59:09.092Z,24.02
2022-08-08T09:01:50.694Z,24.41
2022-08-08T09:04:30.928Z,23.70
2022-08-08T09:07:08.788Z,24.00
2022-08-08T09:09:47.679Z,23.51
2022-08-08T09:12:23.840Z,23.49
2022-08-08T09:14:53.974Z,24.15
2022-08-08T09:17:40.947Z,24.78
2022-08-08T09:22:01.322Z,25.23
2022-08-08T09:22:58.974Z,25.03
2022-08-08T09:25:36.350Z,24.68
2022-08-08T09:28:23.925Z,24.94
2022-08-08T09:31:12.361Z,25.16
2022-08-08T09:34:30.041Z,24.60
2022-08-08T09:36:30.047Z,24.59
2022-08-08T09:39:00.149Z,24.67
2022-08-08T09:41:55.087Z,24.48
2022-08-08T09:44:48.041Z,24.98
2022-08-08T09:48:02.282Z,24.84
2022-08-08T09:50:13.954Z,25.39
2022-08-08T09:52:56.402Z,25.53
2022-08-08T09:56:03.199Z,25.83
2022-08-08T09:58:26.330Z,25.42
2022-08-08T10:01:02.132Z,24.59
2022-08-08T10:03:42.197Z,24.61
2022-08-08T10:06:15.050Z,25.09
2022-08-08T10:08:49.966Z,25.70
2022-08-08T10:12:26.037Z,25.75
2022-08-08T10:14:10.764Z,25.17
2022-08-08T10:16:55.912Z,25.16
2022-08-08T10:19:57.193Z,25.78
2022-08-08T10:22:22.798Z,25.34
2022-08-08T10:24:55.374Z,25.45
2022-08-08T10:27:28.650Z,26.01
2022-08-08T10:30:03.943Z,26.21
2022-08-08T10:32:39.031Z,26.38
2022-08-08T10:36:07.624Z,26.10
2022-08-08T10:38:05.714Z,26.54
2022-08-08T10:40:38.081Z,27.10
2022-08-08T10:43:06.058Z,26.83
2022-08-08T10:45:56.108Z,26.53
2022-08-08T10:48:56.147Z,26.55
2022-08-08T10:51:40.712Z,26.71
2022-08-08T10:54:08.185Z,26.83
2022-08-08T10:56:43.232Z,26.58
2022-08-08T10:59:14.550Z,26.83
2022-08-08T11:01:46.135Z,26.58
2022-08-08T11:04:16.315Z,26.36
2022-08-08T11:06:47.419Z,26.62
2022-08-08T11:09:19.801Z,26.31
2022-08-08T11:12:06.382Z,25.82
2022-08-08T11:14:35.340Z,25.44
2022-08-08T11:17:03.958Z,25.35
2022-08-08T11:19:33.783Z,25.08
2022-08-08T11:22:01.180Z,25.16
2022-08-08T11:24:33.478Z,25.01
2022-08-08T11:27:19.987Z,25.24
2022-08-08T11:30:20.521Z,25.91
2022-08-08T11:32:40.305Z,26.17
2022-08-08T11:35:27.630Z,26.15
2022-08-08T11:38:38.661Z,26.25
2022-08-08T11:40:51.739Z,26.62
2022-08-08T11:43:21.777Z,26.98
2022-08-08T11:46:09.510Z,26.94
2022-08-08T11:48:41.127Z,27.12
2022-08-08T11:51:30.518Z,26.91
2022-08-08T11:54:01.166Z,26.99
2022-08-08T11:56:34.590Z,26.55
2022-08-08T11:59:11.942Z,26.77
2022-08-08T12:01:38.790Z,26.73
2022-08-08T12:04:06.841Z,26.74
2022-08-08T12:06:33.875Z,26.82
2022-08-08T12:09:17.260Z,26.79
2022-08-08T12:11:46.087Z,26.71
2022-08-08T12:14:23.968Z,26.12
2022-08-08T12:16:57.028Z,26.10
2022-08-08T12:19:31.148Z,26.36
2022-08-08T12:22:09.460Z,26.36
2022-08-08T12:24:51.462Z,26.68
2022-08-08T12:27:27.055Z,26.44
2022-08-08T12:30:02.620Z,25.74
2022-08-08T12:32:44.864Z,26.19
2022-08-08T12:35:22.764Z,26.33
2022-08-08T12:38:07.243Z,26.55
2022-08-08T12:40:54.142Z,26.71
2022-08-08T12:43:47.922Z,26.34
2022-08-08T12:46:25.997Z,26.44
2022-08-08T12:51:59.204Z,26.83
2022-08-08T12:54:29.596Z,26.81
2022-08-08T12:56:56.942Z,26.84
2022-08-08T12:59:45.267Z,26.81
2022-08-08T13:02:28.409Z,26.79
2022-08-08T13:04:58.038Z,26.61
2022-08-08T13:08:04.233Z,26.76
2022-08-08T13:10:33.579Z,26.86
2022-08-08T13:13:05.813Z,26.83
2022-08-08T13:15:35.802Z,26.58
2022-08-08T13:18:11.081Z,26.78
2022-08-08T13:20:45.406Z,26.66
2022-08-08T13:23:36.939Z,26.67
2022-08-08T13:26:14.664Z,26.54
2022-08-08T13:28:45.416Z,26.30
2022-08-08T13:31:16.276Z,26.55
2022-08-08T13:33:46.160Z,26.85
2022-08-08T13:36:14.188Z,26.95
2022-08-08T13:38:41.118Z,26.96
2022-08-08T13:41:15.901Z,26.99
2022-08-08T13:43:44.967Z,26.90
2022-08-08T13:46:27.334Z,27.23
2022-08-08T13:49:12.182Z,27.30
2022-08-08T13:51:56.089Z,27.24
2022-08-08T13:54:29.256Z,27.38
2022-08-08T13:57:12.840Z,26.68
2022-08-08T13:59:47.900Z,26.78
2022-08-08T14:02:20.481Z,27.00
2022-08-08T14:05:09.015Z,27.30
2022-08-08T14:07:49.954Z,27.28
2022-08-08T14:10:33.712Z,27.10
2022-08-08T14:13:31.296Z,27.22
2022-08-08T14:16:07.824Z,27.12
2022-08-08T14:18:53.809Z,27.18
2022-08-08T14:21:22.309Z,27.25
2022-08-08T14:24:04.421Z,27.35
2022-08-08T14:26:46.376Z,27.54
2022-08-08T14:29:26.973Z,27.47
2022-08-08T14:32:10.643Z,27.27
2022-08-08T14:34:42.718Z,27.50
2022-08-08T14:37:10.133Z,27.84
2022-08-08T14:40:06.669Z,27.81
2022-08-08T14:42:36.562Z,27.82
2022-08-08T14:45:33.711Z,27.89
2022-08-08T14:48:11.824Z,27.94
2022-08-08T14:50:42.966Z,27.90
2022-08-08T14:53:14.314Z,28.01
2022-08-08T14:55:43.005Z,27.87
2022-08-08T14:58:12.099Z,27.62
2022-08-08T15:00:45.016Z,27.62
2022-08-08T15:03:15.846Z,27.45
2022-08-08T15:05:54.246Z,27.67
2022-08-08T15:08:35.366Z,27.82
2022-08-08T15:11:11.035Z,27.81
2022-08-08T15:14:01.689Z,28.23
2022-08-08T15:16:28.145Z,28.56
2022-08-08T15:18:55.277Z,28.37
2022-08-08T15:21:22.113Z,28.45
2022-08-08T15:23:51.407Z,28.29
2022-08-08T15:26:20.190Z,28.18
2022-08-08T15:28:53.070Z,28.34
2022-08-08T15:31:56.367Z,27.89
2022-08-08T15:34:08.542Z,28.16
2022-08-08T15:36:47.485Z,27.88
2022-08-08T15:39:14.768Z,27.34
2022-08-08T15:41:44.116Z,27.58
2022-08-08T15:44:13.846Z,27.52
2022-08-08T15:46:45.406Z,27.28
2022-08-08T15:49:17.203Z,27.12
2022-08-08T15:51:43.829Z,27.19
2022-08-08T15:54:37.242Z,27.40
2022-08-08T15:56:57.105Z,27.54
2022-08-08T16:00:25.446Z,27.51
2022-08-08T16:02:13.421Z,27.58
2022-08-08T16:04:42.506Z,27.53
2022-08-08T16:07:09.249Z,27.71
2022-08-08T16:13:03.738Z,27.85
2022-08-08T16:13:28.301Z,27.83
2022-08-08T16:15:12.646Z,27.83
2022-08-08T16:18:06.786Z,27.76
2022-08-08T16:20:30.136Z,27.62
2022-08-08T16:22:56.832Z,27.60
2022-08-08T16:25:24.403Z,27.43
2022-08-08T16:28:34.113Z,27.54
2022-08-08T16:30:57.665Z,28.09
2022-08-08T16:33:29.651Z,30.08
2022-08-08T16:36:08.732Z,31.54
2022-08-08T16:38:44.491Z,31.84
2022-08-08T16:41:20.698Z,30.43
2022-08-08T16:43:51.739Z,29.84
2022-08-08T16:46:43.171Z,28.66
2022-08-08T16:49:08.070Z,27.68
2022-08-08T16:55:00.528Z,27.29
2022-08-08T16:55:00.965Z,27.00
2022-08-08T16:57:43.555Z,26.84
2022-08-08T17:00:06.200Z,26.69
2022-08-08T17:02:39.552Z,26.55
2022-08-08T17:05:08.044Z,26.35
2022-08-08T17:07:37.406Z,26.32
2022-08-08T17:10:08.037Z,26.29
2022-08-08T17:12:36.906Z,26.22
2022-08-08T17:15:20.559Z,26.23
2022-08-08T17:18:02.829Z,26.18
2022-08-08T17:20:39.557Z,26.17
2022-08-08T17:23:16.372Z,26.01
2022-08-08T17:25:53.438Z,25.92
2022-08-08T17:28:34.116Z,25.85
2022-08-08T17:31:01.831Z,25.82
2022-08-08T17:34:48.797Z,25.64
2022-08-08T17:36:28.670Z,25.36
2022-08-08T17:39:05.034Z,25.30
2022-08-08T17:41:48.537Z,25.46
2022-08-08T17:44:26.898Z,25.50
2022-08-08T17:46:55.479Z,25.28
2022-08-08T17:49:37.955Z,25.17
2022-08-08T17:52:09.659Z,25.23
2022-08-08T17:54:36.394Z,25.19
2022-08-08T17:57:03.517Z,25.16
2022-08-08T17:59:36.187Z,25.08
2022-08-08T18:02:18.870Z,24.90
2022-08-08T18:04:50.823Z,24.79
2022-08-08T18:08:15.622Z,24.64
2022-08-08T18:10:07.307Z,24.60
2022-08-08T18:12:34.442Z,24.60
2022-08-08T18:15:01.766Z,24.62
2022-08-08T18:18:27.502Z,24.42
2022-08-08T18:20:43.164Z,24.18
2022-08-08T18:23:03.302Z,24.21
2022-08-08T18:25:37.217Z,24.19
2022-08-08T18:28:05.505Z,24.06
2022-08-08T18:30:33.864Z,23.99
2022-08-08T18:33:02.543Z,23.76
2022-08-08T18:35:41.566Z,23.63
2022-08-08T18:38:17.347Z,23.67
2022-08-08T18:40:46.796Z,23.52
2022-08-08T18:43:16.533Z,23.46
2022-08-08T18:45:45.074Z,23.34
2022-08-08T18:48:31.056Z,23.18
2022-08-08T18:50:58.944Z,22.67
2022-08-08T18:54:02.954Z,22.12
2022-08-08T18:56:24.348Z,21.92
2022-08-08T18:58:53.734Z,21.88
2022-08-08T19:02:26.847Z,21.80
2022-08-08T19:04:10.686Z,22.00
2022-08-08T19:06:39.363Z,21.90
2022-08-08T19:09:13.367Z,21.87
2022-08-08T19:11:46.843Z,21.88
2022-08-08T19:14:20.652Z,21.88
2022-08-08T19:16:48.306Z,21.92
2022-08-08T19:19:15.959Z,21.79
2022-08-08T19:21:49.123Z,21.79
2022-08-08T19:24:38.678Z,21.80
2022-08-08T19:27:03.941Z,21.61
2022-08-08T19:29:31.091Z,21.38
2022-08-08T19:32:00.738Z,21.24
2022-08-08T19:34:36.186Z,21.13
2022-08-08T19:37:16.527Z,21.33
2022-08-08T19:39:45.498Z,21.09
2022-08-08T19:42:13.801Z,21.01
2022-08-08T19:44:46.366Z,20.89
2022-08-08T19:47:24.579Z,20.95
2022-08-08T19:49:59.592Z,20.81
2022-08-08T19:52:34.854Z,20.72
2022-08-08T19:55:11.518Z,20.67
2022-08-08T19:57:43.771Z,20.78
2022-08-08T20:00:30.692Z,20.75
2022-08-08T20:03:14.617Z,20.54
2022-08-08T20:06:15.655Z,20.65
2022-08-08T20:08:32.407Z,20.43
2022-08-08T20:11:03.812Z,20.48
2022-08-08T20:14:32.804Z,20.43
2022-08-08T20:16:20.356Z,20.39
2022-08-08T20:18:53.172Z,20.38
2022-08-08T20:21:25.821Z,20.16
2022-08-08T20:23:57.690Z,20.09
2022-08-08T20:26:27.376Z,20.11
2022-08-08T20:28:54.662Z,19.96
2022-08-08T20:31:22.744Z,19.96
2022-08-08T20:34:03.770Z,20.09
2022-08-08T20:36:38.583Z,20.13
2022-08-08T20:39:09.432Z,20.17
2022-08-08T20:41:36.730Z,20.10
2022-08-08T20:44:08.192Z,19.93
2022-08-08T20:46:35.802Z,19.84
2022-08-08T20:49:04.787Z,19.84
2022-08-08T20:51:33.015Z,19.68
2022-08-08T20:54:09.275Z,19.66
2022-08-08T20:57:04.401Z,19.68
2022-08-08T20:59:28.441Z,19.60
2022-08-08T21:02:07.161Z,19.69
2022-08-08T21:04:36.702Z,19.54
2022-08-08T21:07:08.286Z,19.63
2022-08-08T21:09:48.479Z,19.52
2022-08-08T21:12:33.368Z,19.46
2022-08-08T21:15:06.634Z,19.36
2022-08-08T21:17:35.708Z,19.24
2022-08-08T21:20:04.568Z,19.05
2022-08-08T21:22:31.661Z,18.89
2022-08-08T21:24:59.202Z,18.74
2022-08-08T21:28:05.263Z,18.63
2022-08-08T21:30:21.619Z,18.55
2022-08-08T21:32:53.322Z,18.50
2022-08-08T21:36:16.627Z,18.43
2022-08-08T21:38:16.580Z,18.41
2022-08-08T21:40:56.431Z,18.40
2022-08-08T21:43:32.995Z,18.36
2022-08-08T21:48:21.655Z,18.27
2022-08-08T21:48:55.535Z,18.22
2022-08-08T21:54:17.781Z,18.18
2022-08-08T21:54:37.220Z,18.15
2022-08-08T21:57:07.345Z,18.10
2022-08-08T22:00:01.850Z,18.14
2022-08-08T22:02:24.986Z,18.09
2022-08-08T22:04:56.073Z,18.12
2022-08-08T22:07:34.829Z,18.11
2022-08-08T22:10:09.860Z,18.03
2022-08-08T22:12:46.980Z,17.95
2022-08-08T22:15:14.137Z,17.92
2022-08-08T22:17:45.521Z,17.95
2022-08-08T22:20:18.769Z,17.90
2022-08-08T22:22:52.684Z,17.88
2022-08-08T22:25:25.160Z,17.86
2022-08-08T22:28:02.611Z,17.81
2022-08-08T22:30:31.631Z,17.75
2022-08-08T22:32:58.892Z,17.85
2022-08-08T22:36:04.560Z,17.81
2022-08-08T22:38:14.865Z,17.76
2022-08-08T22:40:45.151Z,17.69
2022-08-08T22:43:18.417Z,17.75
2022-08-08T22:45:46.593Z,17.75
2022-08-08T22:48:22.436Z,17.66
2022-08-08T22:50:49.734Z,17.56
2022-08-08T22:54:34.251Z,17.59
2022-08-08T22:56:04.916Z,17.57
2022-08-08T22:58:34.342Z,17.55
2022-08-08T23:01:30.182Z,17.51
2022-08-08T23:03:56.447Z,17.50
2022-08-08T23:06:24.815Z,17.50
2022-08-08T23:08:58.046Z,17.50
2022-08-08T23:11:31.420Z,17.48
2022-08-08T23:14:18.172Z,17.43
2022-08-08T23:16:57.461Z,17.39
2022-08-08T23:19:27.959Z,17.41
2022-08-08T23:22:00.655Z,17.39
2022-08-08T23:24:27.475Z,17.38
2022-08-08T23:27:03.310Z,17.30
2022-08-08T23:29:31.268Z,17.21
2022-08-08T23:31:58.399Z,17.16
2022-08-08T23:34:25.214Z,17.21
2022-08-08T23:36:58.146Z,17.34
2022-08-08T23:39:32.360Z,17.49
2022-08-08T23:42:09.164Z,17.29
2022-08-08T23:44:39.438Z,17.13
2022-08-08T23:49:03.735Z,17.06
2022-08-08T23:50:01.055Z,16.97
2022-08-08T23:52:31.055Z,16.89
2022-08-08T23:55:07.645Z,16.79
2022-08-08T23:57:52.514Z,16.69
